Tonto Basin, AZ (85553)

4:11 PM MST on January 25, 2015 (GMT -0700)
KAZGISEL2 | Change Station
CLOSE
Current Station
Personal Weather Station
Location: Gisela, AZ
Elevation: 2842 ft
Nearby Weather Stations

Elev 2842 ft 34.09 °N, 111.29 °W | Updated 17 seconds ago

Clear
Clear
70.5 °F
Feels Like 72 °F
N
1.6
Wind Variable Wind from SW
Gusts 4.5 mph

Today
High -- | Low -- °F
--% Chance of Precip.
Yesterday
High -- | Low -- °F
Precip. -- in
7:26 AM 5:48 PM
Waxing Crescent, 36% visible
Pressure 30.03 in
Visibility 40.0 miles
Clouds Scattered Clouds 20000 ft
Heat Index 72 °F
Dew Point 11 °F
Humidity 10%
Rainfall 0.00 in
Snow Depth Not available.
UV 1 out of 12
Pollen 4.80 out of 12
Air Quality Not available.
Flu Activity Not available.
METAR KFFZ 252247Z 21010KT 40SM SCT200 22/M06 A3003 RMK WIND ESTIMATED

More Conditions Fewer Conditions

Pressure 30.03 in
Visibility 40.0 miles
Clouds Scattered Clouds 20000 ft
Heat Index 72 °F
Dew Point 11 °F
Humidity 10%
Rainfall 0.00 in
Snow Depth Not available.
UV 1 out of 12
Pollen 4.80 out of 12
Air Quality Not available.
Flu Activity Not available.
METAR KFFZ 252247Z 21010KT 40SM SCT200 22/M06 A3003 RMK WIND ESTIMATED

More Conditions Fewer Conditions

10-Day Weather Forecast

Almanac

Astronomy

Jan. 25, 2015 Rise Set
Actual Time
Civil Twilight
Nautical Twilight
Astronomical Twilight
Moon
Length of Visible Light
Length of Day
Tomorrow will be .
, % of the Moon is Illuminated

Today's Extremes

State Highs State Lows

Community

WunderPhotos

Upload Photos

1,790,085 photos uploaded!

WunderBlogs® & News

Nearby

Air Quality

  Air Quality AQ Index Pollutant
Not available.

Snow Depth

Station Depth Elevation

Earthquake Activity

City Distance Mag. Time & Date
Minimum magnitude displayed is 2.5.

Coastal Water Temperatures

Place Temperature

Nearby Weather Stations